Terminal Aerodrome Forecast
Issued by NWS Wakefield, VA

Home | Current Version | Previous Version | Text Only | Print | Product List | Glossary On
Versions: 1 2 3 4 5 6 7 8 9 10 11 12 13 14 15
000
FTUS41 KAKQ 261720
TAFORF
TAF
KORF 261720Z 2618/2718 02008KT P6SM SCT050
     FM262000 08006KT P6SM VCSH BKN040
     FM262300 12005KT P6SM BKN040
     FM270300 17004KT P6SM BKN050
     FM270600 22004KT P6SM BKN060
     FM271300 27004KT P6SM SCT060=

USA.gov is the U.S. government's official web portal to all federal, state and local government web resources and services.